sensor_id;sensor_type;location;lat;lon;timestamp;P1;durP1;ratioP1;P2;durP2;ratioP2
63606;SDS011;71992;52.478;-1.918;2024-02-16T00:02:44;1.55;;;1.02;;
63606;SDS011;71992;52.478;-1.918;2024-02-16T00:05:34;1.80;;;0.88;;
63606;SDS011;71992;52.478;-1.918;2024-02-16T00:08:28;1.40;;;0.90;;
63606;SDS011;71992;52.478;-1.918;2024-02-16T00:11:00;2.20;;;0.75;;
63606;SDS011;71992;52.478;-1.918;2024-02-16T00:13:30;1.45;;;0.82;;
63606;SDS011;71992;52.478;-1.918;2024-02-16T00:16:22;0.75;;;0.65;;
63606;SDS011;71992;52.478;-1.918;2024-02-16T00:19:11;1.08;;;0.80;;
63606;SDS011;71992;52.478;-1.918;2024-02-16T00:22:01;0.80;;;0.70;;
63606;SDS011;71992;52.478;-1.918;2024-02-16T00:24:53;1.80;;;1.10;;
63606;SDS011;71992;52.478;-1.918;2024-02-16T00:27:25;2.25;;;0.70;;
63606;SDS011;71992;52.478;-1.918;2024-02-16T00:30:14;0.85;;;0.73;;
63606;SDS011;71992;52.478;-1.918;2024-02-16T00:32:47;0.98;;;0.80;;
63606;SDS011;71992;52.478;-1.918;2024-02-16T00:35:36;1.15;;;0.63;;
63606;SDS011;71992;52.478;-1.918;2024-02-16T00:38:25;1.15;;;0.73;;
63606;SDS011;71992;52.478;-1.918;2024-02-16T00:41:18;1.67;;;0.70;;
63606;SDS011;71992;52.478;-1.918;2024-02-16T00:43:51;1.40;;;0.52;;
63606;SDS011;71992;52.478;-1.918;2024-02-16T00:46:20;1.17;;;0.60;;
63606;SDS011;71992;52.478;-1.918;2024-02-16T00:48:51;1.45;;;0.75;;
63606;SDS011;71992;52.478;-1.918;2024-02-16T00:51:20;2.60;;;1.75;;
63606;SDS011;71992;52.478;-1.918;2024-02-16T00:53:51;1.10;;;0.68;;
63606;SDS011;71992;52.478;-1.918;2024-02-16T00:56:41;0.98;;;0.60;;
63606;SDS011;71992;52.478;-1.918;2024-02-16T00:59:34;1.98;;;0.85;;
63606;SDS011;71992;52.478;-1.918;2024-02-16T01:02:23;1.45;;;1.05;;
63606;SDS011;71992;52.478;-1.918;2024-02-16T01:05:12;0.75;;;0.60;;
63606;SDS011;71992;52.478;-1.918;2024-02-16T01:08:06;0.80;;;0.60;;
63606;SDS011;71992;52.478;-1.918;2024-02-16T01:10:56;0.82;;;0.70;;
63606;SDS011;71992;52.478;-1.918;2024-02-16T01:13:45;0.55;;;0.50;;
63606;SDS011;71992;52.478;-1.918;2024-02-16T01:16:18;0.70;;;0.60;;
63606;SDS011;71992;52.478;-1.918;2024-02-16T01:18:47;1.20;;;0.55;;
63606;SDS011;71992;52.478;-1.918;2024-02-16T01:21:37;1.52;;;0.70;;
63606;SDS011;71992;52.478;-1.918;2024-02-16T01:24:27;1.38;;;0.75;;
63606;SDS011;71992;52.478;-1.918;2024-02-16T01:27:16;1.10;;;0.60;;
63606;SDS011;71992;52.478;-1.918;2024-02-16T01:29:47;2.08;;;0.60;;
63606;SDS011;71992;52.478;-1.918;2024-02-16T01:32:19;0.70;;;0.52;;
63606;SDS011;71992;52.478;-1.918;2024-02-16T01:34:48;0.50;;;0.50;;
63606;SDS011;71992;52.478;-1.918;2024-02-16T01:37:40;2.50;;;0.93;;
63606;SDS011;71992;52.478;-1.918;2024-02-16T01:40:29;1.17;;;0.77;;
63606;SDS011;71992;52.478;-1.918;2024-02-16T01:43:19;0.70;;;0.52;;
63606;SDS011;71992;52.478;-1.918;2024-02-16T01:45:48;0.70;;;0.60;;
63606;SDS011;71992;52.478;-1.918;2024-02-16T01:48:40;0.63;;;0.60;;
63606;SDS011;71992;52.478;-1.918;2024-02-16T01:51:29;2.05;;;0.60;;
63606;SDS011;71992;52.478;-1.918;2024-02-16T01:54:19;1.10;;;0.50;;
63606;SDS011;71992;52.478;-1.918;2024-02-16T01:56:48;0.68;;;0.57;;
63606;SDS011;71992;52.478;-1.918;2024-02-16T01:59:38;1.67;;;0.70;;
63606;SDS011;71992;52.478;-1.918;2024-02-16T02:02:29;0.57;;;0.50;;
63606;SDS011;71992;52.478;-1.918;2024-02-16T02:05:22;1.13;;;0.60;;
63606;SDS011;71992;52.478;-1.918;2024-02-16T02:08:11;0.65;;;0.50;;
63606;SDS011;71992;52.478;-1.918;2024-02-16T02:10:41;0.40;;;0.40;;
63606;SDS011;71992;52.478;-1.918;2024-02-16T02:13:31;1.13;;;0.60;;
63606;SDS011;71992;52.478;-1.918;2024-02-16T02:16:00;0.68;;;0.43;;
63606;SDS011;71992;52.478;-1.918;2024-02-16T02:18:53;0.60;;;0.60;;
63606;SDS011;71992;52.478;-1.918;2024-02-16T02:21:46;0.30;;;0.30;;
63606;SDS011;71992;52.478;-1.918;2024-02-16T02:24:18;0.95;;;0.60;;
63606;SDS011;71992;52.478;-1.918;2024-02-16T02:26:48;1.17;;;0.50;;
63606;SDS011;71992;52.478;-1.918;2024-02-16T02:29:17;1.00;;;0.65;;
63606;SDS011;71992;52.478;-1.918;2024-02-16T02:32:08;1.05;;;0.60;;
63606;SDS011;71992;52.478;-1.918;2024-02-16T02:34:39;1.25;;;0.68;;
63606;SDS011;71992;52.478;-1.918;2024-02-16T02:37:09;1.10;;;0.65;;
63606;SDS011;71992;52.478;-1.918;2024-02-16T02:39:41;0.50;;;0.50;;
63606;SDS011;71992;52.478;-1.918;2024-02-16T02:42:11;0.77;;;0.63;;
63606;SDS011;71992;52.478;-1.918;2024-02-16T02:45:00;1.05;;;0.75;;
63606;SDS011;71992;52.478;-1.918;2024-02-16T02:47:36;0.88;;;0.57;;
63606;SDS011;71992;52.478;-1.918;2024-02-16T02:50:25;0.75;;;0.60;;
63606;SDS011;71992;52.478;-1.918;2024-02-16T02:52:54;1.77;;;0.90;;
63606;SDS011;71992;52.478;-1.918;2024-02-16T02:55:26;2.05;;;0.60;;
63606;SDS011;71992;52.478;-1.918;2024-02-16T02:58:15;0.77;;;0.50;;
63606;SDS011;71992;52.478;-1.918;2024-02-16T03:00:45;1.13;;;0.50;;
63606;SDS011;71992;52.478;-1.918;2024-02-16T03:03:34;1.30;;;0.68;;
63606;SDS011;71992;52.478;-1.918;2024-02-16T03:06:04;1.35;;;0.60;;
63606;SDS011;71992;52.478;-1.918;2024-02-16T03:08:34;1.88;;;0.50;;
63606;SDS011;71992;52.478;-1.918;2024-02-16T03:11:06;1.00;;;0.63;;
63606;SDS011;71992;52.478;-1.918;2024-02-16T03:13:56;0.55;;;0.52;;
63606;SDS011;71992;52.478;-1.918;2024-02-16T03:16:45;0.50;;;0.50;;
63606;SDS011;71992;52.478;-1.918;2024-02-16T03:19:35;0.98;;;0.60;;
63606;SDS011;71992;52.478;-1.918;2024-02-16T03:22:24;0.40;;;0.40;;
63606;SDS011;71992;52.478;-1.918;2024-02-16T03:25:13;1.45;;;0.60;;
63606;SDS011;71992;52.478;-1.918;2024-02-16T03:28:05;0.85;;;0.50;;
63606;SDS011;71992;52.478;-1.918;2024-02-16T03:30:36;1.02;;;0.60;;
63606;SDS011;71992;52.478;-1.918;2024-02-16T03:33:05;0.77;;;0.45;;
63606;SDS011;71992;52.478;-1.918;2024-02-16T03:35:55;0.80;;;0.50;;
63606;SDS011;71992;52.478;-1.918;2024-02-16T03:38:25;0.43;;;0.40;;
63606;SDS011;71992;52.478;-1.918;2024-02-16T03:41:18;0.60;;;0.50;;
63606;SDS011;71992;52.478;-1.918;2024-02-16T03:44:11;0.40;;;0.40;;
63606;SDS011;71992;52.478;-1.918;2024-02-16T03:47:00;1.15;;;0.50;;
63606;SDS011;71992;52.478;-1.918;2024-02-16T03:49:30;0.75;;;0.73;;
63606;SDS011;71992;52.478;-1.918;2024-02-16T03:52:21;1.23;;;0.50;;
63606;SDS011;71992;52.478;-1.918;2024-02-16T03:54:52;0.50;;;0.50;;
63606;SDS011;71992;52.478;-1.918;2024-02-16T03:57:41;0.63;;;0.57;;
63606;SDS011;71992;52.478;-1.918;2024-02-16T04:00:14;0.60;;;0.47;;
63606;SDS011;71992;52.478;-1.918;2024-02-16T04:03:03;1.63;;;0.73;;
63606;SDS011;71992;52.478;-1.918;2024-02-16T04:05:33;1.00;;;0.70;;
63606;SDS011;71992;52.478;-1.918;2024-02-16T04:08:04;0.45;;;0.40;;
63606;SDS011;71992;52.478;-1.918;2024-02-16T04:10:54;0.90;;;0.60;;
63606;SDS011;71992;52.478;-1.918;2024-02-16T04:13:43;0.57;;;0.57;;
63606;SDS011;71992;52.478;-1.918;2024-02-16T04:16:37;1.27;;;0.60;;
63606;SDS011;71992;52.478;-1.918;2024-02-16T04:21:35;0.80;;;0.50;;
63606;SDS011;71992;52.478;-1.918;2024-02-16T04:24:24;0.60;;;0.50;;
63606;SDS011;71992;52.478;-1.918;2024-02-16T04:26:54;1.45;;;0.50;;
63606;SDS011;71992;52.478;-1.918;2024-02-16T04:29:44;1.08;;;0.57;;
63606;SDS011;71992;52.478;-1.918;2024-02-16T04:32:16;0.80;;;0.57;;
63606;SDS011;71992;52.478;-1.918;2024-02-16T04:35:06;0.93;;;0.52;;
63606;SDS011;71992;52.478;-1.918;2024-02-16T04:37:37;1.10;;;0.70;;
63606;SDS011;71992;52.478;-1.918;2024-02-16T04:40:27;0.77;;;0.52;;
63606;SDS011;71992;52.478;-1.918;2024-02-16T04:43:16;0.90;;;0.80;;
63606;SDS011;71992;52.478;-1.918;2024-02-16T04:46:06;1.75;;;0.68;;
63606;SDS011;71992;52.478;-1.918;2024-02-16T04:48:58;1.30;;;0.60;;
63606;SDS011;71992;52.478;-1.918;2024-02-16T04:51:47;1.67;;;0.70;;
63606;SDS011;71992;52.478;-1.918;2024-02-16T04:54:36;1.23;;;0.60;;
63606;SDS011;71992;52.478;-1.918;2024-02-16T04:57:07;1.88;;;0.70;;
63606;SDS011;71992;52.478;-1.918;2024-02-16T04:59:56;1.25;;;1.08;;
63606;SDS011;71992;52.478;-1.918;2024-02-16T05:02:25;1.08;;;0.70;;
63606;SDS011;71992;52.478;-1.918;2024-02-16T05:04:57;2.60;;;0.98;;
63606;SDS011;71992;52.478;-1.918;2024-02-16T05:07:26;1.60;;;0.80;;
63606;SDS011;71992;52.478;-1.918;2024-02-16T05:10:17;2.95;;;1.40;;
63606;SDS011;71992;52.478;-1.918;2024-02-16T05:13:08;1.73;;;0.95;;
63606;SDS011;71992;52.478;-1.918;2024-02-16T05:15:37;1.60;;;1.05;;
63606;SDS011;71992;52.478;-1.918;2024-02-16T05:18:29;1.33;;;0.88;;
63606;SDS011;71992;52.478;-1.918;2024-02-16T05:21:22;1.90;;;0.90;;
63606;SDS011;71992;52.478;-1.918;2024-02-16T05:24:11;2.58;;;1.17;;
63606;SDS011;71992;52.478;-1.918;2024-02-16T05:26:41;1.63;;;1.10;;
63606;SDS011;71992;52.478;-1.918;2024-02-16T05:29:11;2.08;;;1.10;;
63606;SDS011;71992;52.478;-1.918;2024-02-16T05:31:41;3.15;;;1.20;;
63606;SDS011;71992;52.478;-1.918;2024-02-16T05:34:10;3.28;;;1.10;;
63606;SDS011;71992;52.478;-1.918;2024-02-16T05:37:00;1.58;;;0.90;;
63606;SDS011;71992;52.478;-1.918;2024-02-16T05:39:32;3.13;;;1.30;;
63606;SDS011;71992;52.478;-1.918;2024-02-16T05:42:29;1.60;;;1.00;;
63606;SDS011;71992;52.478;-1.918;2024-02-16T05:45:00;2.17;;;0.90;;
63606;SDS011;71992;52.478;-1.918;2024-02-16T05:47:50;2.78;;;1.25;;
63606;SDS011;71992;52.478;-1.918;2024-02-16T05:50:39;1.65;;;0.90;;
63606;SDS011;71992;52.478;-1.918;2024-02-16T05:53:31;3.00;;;1.20;;
63606;SDS011;71992;52.478;-1.918;2024-02-16T05:56:22;1.48;;;0.90;;
63606;SDS011;71992;52.478;-1.918;2024-02-16T05:59:11;2.35;;;1.10;;
63606;SDS011;71992;52.478;-1.918;2024-02-16T06:01:41;1.85;;;1.10;;
63606;SDS011;71992;52.478;-1.918;2024-02-16T06:04:10;3.83;;;1.17;;
63606;SDS011;71992;52.478;-1.918;2024-02-16T06:06:59;1.70;;;0.80;;
63606;SDS011;71992;52.478;-1.918;2024-02-16T06:09:51;2.03;;;1.02;;
63606;SDS011;71992;52.478;-1.918;2024-02-16T06:12:40;1.60;;;1.00;;
63606;SDS011;71992;52.478;-1.918;2024-02-16T06:15:29;1.67;;;0.93;;
63606;SDS011;71992;52.478;-1.918;2024-02-16T06:18:20;2.10;;;0.80;;
63606;SDS011;71992;52.478;-1.918;2024-02-16T06:21:09;1.17;;;0.90;;
63606;SDS011;71992;52.478;-1.918;2024-02-16T06:23:59;2.05;;;1.23;;
63606;SDS011;71992;52.478;-1.918;2024-02-16T06:26:33;1.65;;;0.90;;
63606;SDS011;71992;52.478;-1.918;2024-02-16T06:29:02;1.65;;;0.93;;
63606;SDS011;71992;52.478;-1.918;2024-02-16T06:31:53;2.15;;;1.00;;
63606;SDS011;71992;52.478;-1.918;2024-02-16T06:34:22;1.88;;;1.13;;
63606;SDS011;71992;52.478;-1.918;2024-02-16T06:36:53;3.22;;;0.90;;
63606;SDS011;71992;52.478;-1.918;2024-02-16T06:39:43;2.30;;;0.95;;
63606;SDS011;71992;52.478;-1.918;2024-02-16T06:42:38;3.05;;;1.00;;
63606;SDS011;71992;52.478;-1.918;2024-02-16T06:45:08;1.90;;;1.05;;
63606;SDS011;71992;52.478;-1.918;2024-02-16T06:47:38;1.15;;;0.93;;
63606;SDS011;71992;52.478;-1.918;2024-02-16T06:50:07;1.85;;;1.20;;
63606;SDS011;71992;52.478;-1.918;2024-02-16T06:52:40;3.53;;;1.15;;
63606;SDS011;71992;52.478;-1.918;2024-02-16T06:55:31;1.30;;;1.10;;
63606;SDS011;71992;52.478;-1.918;2024-02-16T06:58:24;1.33;;;0.77;;
63606;SDS011;71992;52.478;-1.918;2024-02-16T07:01:16;1.55;;;0.88;;
63606;SDS011;71992;52.478;-1.918;2024-02-16T07:04:05;2.88;;;0.82;;
63606;SDS011;71992;52.478;-1.918;2024-02-16T07:06:35;3.17;;;1.10;;
63606;SDS011;71992;52.478;-1.918;2024-02-16T07:09:04;2.72;;;1.02;;
63606;SDS011;71992;52.478;-1.918;2024-02-16T07:11:53;1.67;;;0.93;;
63606;SDS011;71992;52.478;-1.918;2024-02-16T07:14:27;4.22;;;1.10;;
63606;SDS011;71992;52.478;-1.918;2024-02-16T07:16:57;3.03;;;1.08;;
63606;SDS011;71992;52.478;-1.918;2024-02-16T07:19:46;2.30;;;0.85;;
63606;SDS011;71992;52.478;-1.918;2024-02-16T07:22:36;0.90;;;0.70;;
63606;SDS011;71992;52.478;-1.918;2024-02-16T07:25:25;2.20;;;1.10;;
63606;SDS011;71992;52.478;-1.918;2024-02-16T07:28:16;1.92;;;0.75;;
63606;SDS011;71992;52.478;-1.918;2024-02-16T07:30:48;1.85;;;1.08;;
63606;SDS011;71992;52.478;-1.918;2024-02-16T07:33:19;1.25;;;0.80;;
63606;SDS011;71992;52.478;-1.918;2024-02-16T07:36:13;1.98;;;1.10;;
63606;SDS011;71992;52.478;-1.918;2024-02-16T07:38:44;4.07;;;1.00;;
63606;SDS011;71992;52.478;-1.918;2024-02-16T07:41:34;3.65;;;1.00;;
63606;SDS011;71992;52.478;-1.918;2024-02-16T07:44:05;1.85;;;1.10;;
63606;SDS011;71992;52.478;-1.918;2024-02-16T07:46:58;3.38;;;1.05;;
63606;SDS011;71992;52.478;-1.918;2024-02-16T07:49:27;0.85;;;0.80;;
63606;SDS011;71992;52.478;-1.918;2024-02-16T07:52:19;2.05;;;1.00;;
63606;SDS011;71992;52.478;-1.918;2024-02-16T07:55:09;2.92;;;1.60;;
63606;SDS011;71992;52.478;-1.918;2024-02-16T07:57:39;2.90;;;0.93;;
63606;SDS011;71992;52.478;-1.918;2024-02-16T08:00:28;2.83;;;1.13;;
63606;SDS011;71992;52.478;-1.918;2024-02-16T08:03:21;1.23;;;0.90;;
63606;SDS011;71992;52.478;-1.918;2024-02-16T08:09:00;3.33;;;0.82;;
63606;SDS011;71992;52.478;-1.918;2024-02-16T08:11:52;1.88;;;0.68;;
63606;SDS011;71992;52.478;-1.918;2024-02-16T08:14:42;2.78;;;1.08;;
63606;SDS011;71992;52.478;-1.918;2024-02-16T08:17:36;3.25;;;0.90;;
63606;SDS011;71992;52.478;-1.918;2024-02-16T08:20:08;1.63;;;1.40;;
63606;SDS011;71992;52.478;-1.918;2024-02-16T08:22:59;1.20;;;0.65;;
63606;SDS011;71992;52.478;-1.918;2024-02-16T08:25:28;1.70;;;1.10;;
63606;SDS011;71992;52.478;-1.918;2024-02-16T08:27:59;2.45;;;0.88;;
63606;SDS011;71992;52.478;-1.918;2024-02-16T08:30:51;1.52;;;0.90;;
63606;SDS011;71992;52.478;-1.918;2024-02-16T08:33:21;2.17;;;0.73;;
63606;SDS011;71992;52.478;-1.918;2024-02-16T08:36:13;1.45;;;0.90;;
63606;SDS011;71992;52.478;-1.918;2024-02-16T08:39:02;1.38;;;0.93;;
63606;SDS011;71992;52.478;-1.918;2024-02-16T08:41:54;1.42;;;1.17;;
63606;SDS011;71992;52.478;-1.918;2024-02-16T08:44:44;2.00;;;0.90;;
63606;SDS011;71992;52.478;-1.918;2024-02-16T08:47:14;1.92;;;0.70;;
63606;SDS011;71992;52.478;-1.918;2024-02-16T08:49:44;1.77;;;0.88;;
63606;SDS011;71992;52.478;-1.918;2024-02-16T08:52:36;1.73;;;0.63;;
63606;SDS011;71992;52.478;-1.918;2024-02-16T08:55:25;1.85;;;0.75;;
63606;SDS011;71992;52.478;-1.918;2024-02-16T08:57:55;2.00;;;0.80;;
63606;SDS011;71992;52.478;-1.918;2024-02-16T09:00:49;1.90;;;0.80;;
63606;SDS011;71992;52.478;-1.918;2024-02-16T09:03:19;2.97;;;0.80;;
63606;SDS011;71992;52.478;-1.918;2024-02-16T09:05:50;3.05;;;0.82;;
63606;SDS011;71992;52.478;-1.918;2024-02-16T09:08:42;1.40;;;1.10;;
63606;SDS011;71992;52.478;-1.918;2024-02-16T09:11:11;1.10;;;0.70;;
63606;SDS011;71992;52.478;-1.918;2024-02-16T09:14:00;2.30;;;0.93;;
63606;SDS011;71992;52.478;-1.918;2024-02-16T09:16:49;1.60;;;0.80;;
63606;SDS011;71992;52.478;-1.918;2024-02-16T09:19:40;1.13;;;0.60;;
63606;SDS011;71992;52.478;-1.918;2024-02-16T09:22:35;1.98;;;0.95;;
63606;SDS011;71992;52.478;-1.918;2024-02-16T09:25:27;0.68;;;0.60;;
63606;SDS011;71992;52.478;-1.918;2024-02-16T09:28:17;1.50;;;0.65;;
63606;SDS011;71992;52.478;-1.918;2024-02-16T09:31:06;2.47;;;0.60;;
63606;SDS011;71992;52.478;-1.918;2024-02-16T09:33:38;2.20;;;0.82;;
63606;SDS011;71992;52.478;-1.918;2024-02-16T09:36:28;1.98;;;0.95;;
63606;SDS011;71992;52.478;-1.918;2024-02-16T09:39:17;2.13;;;0.82;;
63606;SDS011;71992;52.478;-1.918;2024-02-16T09:41:49;2.38;;;0.82;;
63606;SDS011;71992;52.478;-1.918;2024-02-16T09:44:21;1.90;;;0.70;;
63606;SDS011;71992;52.478;-1.918;2024-02-16T09:47:11;1.95;;;0.82;;
63606;SDS011;71992;52.478;-1.918;2024-02-16T09:50:05;1.50;;;0.60;;
63606;SDS011;71992;52.478;-1.918;2024-02-16T09:52:56;1.65;;;0.60;;
63606;SDS011;71992;52.478;-1.918;2024-02-16T09:55:48;2.05;;;0.60;;
63606;SDS011;71992;52.478;-1.918;2024-02-16T09:58:43;0.60;;;0.47;;
63606;SDS011;71992;52.478;-1.918;2024-02-16T10:01:17;2.47;;;0.60;;
63606;SDS011;71992;52.478;-1.918;2024-02-16T10:03:49;1.02;;;0.60;;
63606;SDS011;71992;52.478;-1.918;2024-02-16T10:06:21;2.28;;;0.50;;
63606;SDS011;71992;52.478;-1.918;2024-02-16T10:09:21;1.02;;;0.50;;
63606;SDS011;71992;52.478;-1.918;2024-02-16T10:12:17;0.93;;;0.52;;
63606;SDS011;71992;52.478;-1.918;2024-02-16T10:15:10;0.93;;;0.63;;
63606;SDS011;71992;52.478;-1.918;2024-02-16T10:18:00;0.90;;;0.35;;
63606;SDS011;71992;52.478;-1.918;2024-02-16T10:20:51;1.60;;;0.32;;
63606;SDS011;71992;52.478;-1.918;2024-02-16T10:23:43;0.60;;;0.40;;
63606;SDS011;71992;52.478;-1.918;2024-02-16T10:26:32;2.85;;;0.45;;
63606;SDS011;71992;52.478;-1.918;2024-02-16T10:29:05;1.25;;;0.50;;
63606;SDS011;71992;52.478;-1.918;2024-02-16T10:31:45;0.28;;;0.28;;
63606;SDS011;71992;52.478;-1.918;2024-02-16T10:34:34;1.08;;;0.57;;
63606;SDS011;71992;52.478;-1.918;2024-02-16T10:37:07;1.73;;;0.47;;
63606;SDS011;71992;52.478;-1.918;2024-02-16T10:42:51;0.98;;;0.60;;
63606;SDS011;71992;52.478;-1.918;2024-02-16T10:45:21;0.98;;;0.40;;
63606;SDS011;71992;52.478;-1.918;2024-02-16T10:47:55;1.17;;;0.68;;
63606;SDS011;71992;52.478;-1.918;2024-02-16T10:50:44;1.02;;;0.40;;
63606;SDS011;71992;52.478;-1.918;2024-02-16T10:53:36;1.63;;;0.60;;
63606;SDS011;71992;52.478;-1.918;2024-02-16T10:56:31;0.57;;;0.40;;
63606;SDS011;71992;52.478;-1.918;2024-02-16T10:59:02;0.43;;;0.30;;
63606;SDS011;71992;52.478;-1.918;2024-02-16T11:01:31;0.98;;;0.50;;
63606;SDS011;71992;52.478;-1.918;2024-02-16T11:04:24;0.32;;;0.30;;
63606;SDS011;71992;52.478;-1.918;2024-02-16T11:07:15;0.80;;;0.45;;
63606;SDS011;71992;52.478;-1.918;2024-02-16T11:10:05;0.38;;;0.30;;
63606;SDS011;71992;52.478;-1.918;2024-02-16T11:12:45;1.27;;;0.52;;
63606;SDS011;71992;52.478;-1.918;2024-02-16T11:15:16;1.23;;;0.65;;
63606;SDS011;71992;52.478;-1.918;2024-02-16T11:18:16;1.20;;;0.43;;
63606;SDS011;71992;52.478;-1.918;2024-02-16T11:20:48;1.42;;;0.38;;
63606;SDS011;71992;52.478;-1.918;2024-02-16T11:23:38;0.50;;;0.30;;
63606;SDS011;71992;52.478;-1.918;2024-02-16T11:26:10;2.92;;;0.40;;
63606;SDS011;71992;52.478;-1.918;2024-02-16T11:29:02;2.67;;;0.50;;
63606;SDS011;71992;52.478;-1.918;2024-02-16T11:31:52;0.57;;;0.22;;
63606;SDS011;71992;52.478;-1.918;2024-02-16T11:34:23;0.63;;;0.40;;
63606;SDS011;71992;52.478;-1.918;2024-02-16T11:37:16;2.60;;;0.60;;
63606;SDS011;71992;52.478;-1.918;2024-02-16T11:40:06;2.42;;;0.40;;
63606;SDS011;71992;52.478;-1.918;2024-02-16T11:42:59;1.70;;;0.57;;
63606;SDS011;71992;52.478;-1.918;2024-02-16T11:45:48;0.95;;;0.50;;
63606;SDS011;71992;52.478;-1.918;2024-02-16T11:48:38;1.90;;;0.43;;
63606;SDS011;71992;52.478;-1.918;2024-02-16T11:51:27;1.73;;;0.60;;
63606;SDS011;71992;52.478;-1.918;2024-02-16T11:54:20;1.50;;;0.68;;
63606;SDS011;71992;52.478;-1.918;2024-02-16T11:57:09;1.17;;;0.50;;
63606;SDS011;71992;52.478;-1.918;2024-02-16T12:00:02;0.45;;;0.40;;
63606;SDS011;71992;52.478;-1.918;2024-02-16T12:03:00;0.90;;;0.50;;
63606;SDS011;71992;52.478;-1.918;2024-02-16T12:05:32;1.25;;;0.50;;
63606;SDS011;71992;52.478;-1.918;2024-02-16T12:08:22;0.50;;;0.30;;
63606;SDS011;71992;52.478;-1.918;2024-02-16T12:11:15;1.30;;;0.60;;
63606;SDS011;71992;52.478;-1.918;2024-02-16T12:14:07;1.65;;;0.40;;
63606;SDS011;71992;52.478;-1.918;2024-02-16T12:16:36;1.15;;;0.40;;
63606;SDS011;71992;52.478;-1.918;2024-02-16T12:19:26;0.55;;;0.30;;
63606;SDS011;71992;52.478;-1.918;2024-02-16T12:22:16;3.05;;;0.40;;
63606;SDS011;71992;52.478;-1.918;2024-02-16T12:25:07;2.10;;;0.45;;
63606;SDS011;71992;52.478;-1.918;2024-02-16T12:28:00;0.65;;;0.35;;
63606;SDS011;71992;52.478;-1.918;2024-02-16T12:30:50;0.52;;;0.40;;
63606;SDS011;71992;52.478;-1.918;2024-02-16T12:33:41;2.75;;;1.10;;
63606;SDS011;71992;52.478;-1.918;2024-02-16T12:36:10;6.10;;;2.95;;
63606;SDS011;71992;52.478;-1.918;2024-02-16T12:38:40;2.95;;;1.30;;
63606;SDS011;71992;52.478;-1.918;2024-02-16T12:41:29;1.85;;;1.05;;
63606;SDS011;71992;52.478;-1.918;2024-02-16T12:44:21;1.83;;;0.70;;
63606;SDS011;71992;52.478;-1.918;2024-02-16T12:47:12;2.88;;;0.68;;
63606;SDS011;71992;52.478;-1.918;2024-02-16T12:49:41;0.93;;;0.57;;
63606;SDS011;71992;52.478;-1.918;2024-02-16T12:52:31;0.80;;;0.43;;
63606;SDS011;71992;52.478;-1.918;2024-02-16T12:55:05;0.55;;;0.32;;
63606;SDS011;71992;52.478;-1.918;2024-02-16T12:57:35;0.68;;;0.40;;
63606;SDS011;71992;52.478;-1.918;2024-02-16T13:00:08;1.00;;;0.40;;
63606;SDS011;71992;52.478;-1.918;2024-02-16T13:02:58;0.75;;;0.30;;
63606;SDS011;71992;52.478;-1.918;2024-02-16T13:05:50;1.42;;;0.50;;
63606;SDS011;71992;52.478;-1.918;2024-02-16T13:08:22;2.05;;;0.50;;
63606;SDS011;71992;52.478;-1.918;2024-02-16T13:11:11;0.30;;;0.30;;
63606;SDS011;71992;52.478;-1.918;2024-02-16T13:14:01;0.82;;;0.40;;
63606;SDS011;71992;52.478;-1.918;2024-02-16T13:16:53;1.15;;;0.30;;
63606;SDS011;71992;52.478;-1.918;2024-02-16T13:19:42;1.03;;;0.57;;
63606;SDS011;71992;52.478;-1.918;2024-02-16T13:22:32;1.42;;;0.40;;
63606;SDS011;71992;52.478;-1.918;2024-02-16T13:25:02;0.32;;;0.32;;
63606;SDS011;71992;52.478;-1.918;2024-02-16T13:27:52;0.32;;;0.30;;
63606;SDS011;71992;52.478;-1.918;2024-02-16T13:30:41;0.68;;;0.40;;
63606;SDS011;71992;52.478;-1.918;2024-02-16T13:33:33;1.75;;;0.50;;
63606;SDS011;71992;52.478;-1.918;2024-02-16T13:36:24;1.60;;;0.60;;
63606;SDS011;71992;52.478;-1.918;2024-02-16T13:38:53;0.65;;;0.40;;
63606;SDS011;71992;52.478;-1.918;2024-02-16T13:41:25;1.30;;;0.40;;
63606;SDS011;71992;52.478;-1.918;2024-02-16T13:43:57;1.02;;;0.50;;
63606;SDS011;71992;52.478;-1.918;2024-02-16T13:46:27;2.53;;;1.10;;
63606;SDS011;71992;52.478;-1.918;2024-02-16T13:49:22;3.38;;;1.10;;
63606;SDS011;71992;52.478;-1.918;2024-02-16T13:51:52;4.13;;;1.13;;
63606;SDS011;71992;52.478;-1.918;2024-02-16T13:54:44;2.67;;;0.90;;
63606;SDS011;71992;52.478;-1.918;2024-02-16T13:57:34;2.10;;;0.90;;
63606;SDS011;71992;52.478;-1.918;2024-02-16T14:00:24;2.08;;;0.73;;
63606;SDS011;71992;52.478;-1.918;2024-02-16T14:03:14;1.35;;;0.80;;
63606;SDS011;71992;52.478;-1.918;2024-02-16T14:05:48;2.47;;;0.90;;
63606;SDS011;71992;52.478;-1.918;2024-02-16T14:08:40;2.17;;;0.90;;
63606;SDS011;71992;52.478;-1.918;2024-02-16T14:11:09;2.58;;;0.95;;
63606;SDS011;71992;52.478;-1.918;2024-02-16T14:13:38;4.50;;;1.38;;
63606;SDS011;71992;52.478;-1.918;2024-02-16T14:16:27;1.92;;;1.00;;
63606;SDS011;71992;52.478;-1.918;2024-02-16T14:18:59;2.88;;;1.20;;
63606;SDS011;71992;52.478;-1.918;2024-02-16T14:21:53;2.08;;;1.08;;
63606;SDS011;71992;52.478;-1.918;2024-02-16T14:24:42;4.28;;;1.23;;
63606;SDS011;71992;52.478;-1.918;2024-02-16T14:27:31;2.25;;;1.00;;
63606;SDS011;71992;52.478;-1.918;2024-02-16T14:30:21;1.90;;;0.75;;
63606;SDS011;71992;52.478;-1.918;2024-02-16T14:33:10;1.23;;;0.70;;
63606;SDS011;71992;52.478;-1.918;2024-02-16T14:36:04;2.05;;;0.90;;
63606;SDS011;71992;52.478;-1.918;2024-02-16T14:38:41;1.17;;;0.60;;
63606;SDS011;71992;52.478;-1.918;2024-02-16T14:41:30;1.42;;;0.68;;
63606;SDS011;71992;52.478;-1.918;2024-02-16T14:43:59;2.92;;;1.15;;
63606;SDS011;71992;52.478;-1.918;2024-02-16T14:46:49;0.93;;;0.50;;
63606;SDS011;71992;52.478;-1.918;2024-02-16T14:49:38;1.50;;;0.40;;
63606;SDS011;71992;52.478;-1.918;2024-02-16T14:52:09;2.13;;;0.50;;
63606;SDS011;71992;52.478;-1.918;2024-02-16T14:55:02;1.27;;;0.40;;
63606;SDS011;71992;52.478;-1.918;2024-02-16T14:57:36;1.05;;;0.95;;
63606;SDS011;71992;52.478;-1.918;2024-02-16T15:00:06;0.35;;;0.32;;
63606;SDS011;71992;52.478;-1.918;2024-02-16T15:02:59;0.35;;;0.35;;
63606;SDS011;71992;52.478;-1.918;2024-02-16T15:05:49;1.05;;;0.47;;
63606;SDS011;71992;52.478;-1.918;2024-02-16T15:08:18;0.75;;;0.35;;
63606;SDS011;71992;52.478;-1.918;2024-02-16T15:11:10;0.30;;;0.30;;
63606;SDS011;71992;52.478;-1.918;2024-02-16T15:13:59;0.40;;;0.30;;
63606;SDS011;71992;52.478;-1.918;2024-02-16T15:16:48;0.60;;;0.40;;
63606;SDS011;71992;52.478;-1.918;2024-02-16T15:19:21;0.80;;;0.30;;
63606;SDS011;71992;52.478;-1.918;2024-02-16T15:22:10;0.70;;;0.32;;
63606;SDS011;71992;52.478;-1.918;2024-02-16T15:24:59;0.45;;;0.40;;
63606;SDS011;71992;52.478;-1.918;2024-02-16T15:27:51;0.77;;;0.40;;
63606;SDS011;71992;52.478;-1.918;2024-02-16T15:30:24;0.43;;;0.40;;
63606;SDS011;71992;52.478;-1.918;2024-02-16T15:32:54;1.38;;;0.35;;
63606;SDS011;71992;52.478;-1.918;2024-02-16T15:35:23;0.57;;;0.40;;
63606;SDS011;71992;52.478;-1.918;2024-02-16T15:38:13;0.47;;;0.40;;
63606;SDS011;71992;52.478;-1.918;2024-02-16T15:41:03;0.65;;;0.28;;
63606;SDS011;71992;52.478;-1.918;2024-02-16T15:43:55;1.08;;;0.45;;
63606;SDS011;71992;52.478;-1.918;2024-02-16T15:46:47;1.08;;;0.47;;
63606;SDS011;71992;52.478;-1.918;2024-02-16T15:49:37;0.75;;;0.30;;
63606;SDS011;71992;52.478;-1.918;2024-02-16T15:52:27;0.70;;;0.40;;
63606;SDS011;71992;52.478;-1.918;2024-02-16T15:55:16;0.55;;;0.32;;
63606;SDS011;71992;52.478;-1.918;2024-02-16T15:58:06;0.73;;;0.40;;
63606;SDS011;71992;52.478;-1.918;2024-02-16T16:00:38;0.68;;;0.50;;
63606;SDS011;71992;52.478;-1.918;2024-02-16T16:03:28;0.38;;;0.38;;
63606;SDS011;71992;52.478;-1.918;2024-02-16T16:06:17;0.85;;;0.30;;
63606;SDS011;71992;52.478;-1.918;2024-02-16T16:09:06;1.17;;;0.57;;
63606;SDS011;71992;52.478;-1.918;2024-02-16T16:11:56;1.60;;;0.57;;
63606;SDS011;71992;52.478;-1.918;2024-02-16T16:14:48;1.63;;;0.70;;
63606;SDS011;71992;52.478;-1.918;2024-02-16T16:17:23;1.38;;;0.65;;